createdAt,value
2018-11-14T00:00:37.852Z,1012.58
2018-11-14T00:01:37.866Z,1012.62
2018-11-14T00:02:37.891Z,1012.59
2018-11-14T00:03:37.909Z,1012.56
2018-11-14T00:04:37.934Z,1012.6
2018-11-14T00:05:37.958Z,1012.55
2018-11-14T00:06:37.975Z,1012.61
2018-11-14T00:07:37.996Z,1012.58
2018-11-14T00:08:38.018Z,1012.58
2018-11-14T00:09:38.110Z,1012.64
2018-11-14T00:10:38.059Z,1012.58
2018-11-14T00:11:38.086Z,1012.63
2018-11-14T00:12:38.103Z,1012.63
2018-11-14T00:13:38.126Z,1012.65
2018-11-14T00:14:38.146Z,1012.66
2018-11-14T00:15:38.168Z,1012.68
2018-11-14T00:16:38.193Z,1012.72
2018-11-14T00:17:38.212Z,1012.71
2018-11-14T00:18:38.233Z,1012.75
2018-11-14T00:19:38.255Z,1012.75
2018-11-14T00:20:38.280Z,1012.69
2018-11-14T00:21:38.299Z,1012.75
2018-11-14T00:22:38.318Z,1012.71
2018-11-14T00:23:38.338Z,1012.72
2018-11-14T00:24:38.366Z,1012.69
2018-11-14T00:25:38.382Z,1012.72
2018-11-14T00:26:38.443Z,1012.73
2018-11-14T00:27:38.426Z,1012.73
2018-11-14T00:28:38.447Z,1012.7
2018-11-14T00:29:38.503Z,1012.7
2018-11-14T00:30:38.489Z,1012.75
2018-11-14T00:31:38.512Z,1012.75
2018-11-14T00:32:38.533Z,1012.75
2018-11-14T00:33:38.554Z,1012.77
2018-11-14T00:34:38.653Z,1012.79
2018-11-14T00:35:38.672Z,1012.75
2018-11-14T00:36:38.623Z,1012.78
2018-11-14T00:37:38.640Z,1012.74
2018-11-14T00:38:38.662Z,1012.73
2018-11-14T00:39:38.684Z,1012.72
2018-11-14T00:40:38.705Z,1012.73
2018-11-14T00:41:38.726Z,1012.73
2018-11-14T00:42:38.780Z,1012.74
2018-11-14T00:43:38.767Z,1012.73
2018-11-14T00:44:38.792Z,1012.75
2018-11-14T00:45:38.810Z,1012.77
2018-11-14T00:46:38.834Z,1012.72
2018-11-14T00:47:38.860Z,1012.68
2018-11-14T00:48:38.877Z,1012.7
2018-11-14T00:49:38.902Z,1012.64
2018-11-14T00:50:38.918Z,1012.7
2018-11-14T00:51:38.940Z,1012.69
2018-11-14T00:52:38.968Z,1012.69
2018-11-14T00:53:38.986Z,1012.65
2018-11-14T00:54:39.013Z,1012.71
2018-11-14T00:55:39.026Z,1012.66
2018-11-14T00:56:39.050Z,1012.67
2018-11-14T00:57:39.070Z,1012.66
2018-11-14T00:58:39.093Z,1012.67
2018-11-14T00:59:39.115Z,1012.66
2018-11-14T01:00:39.137Z,1012.72
2018-11-14T01:01:39.260Z,1012.7
2018-11-14T01:02:39.183Z,1012.7
2018-11-14T01:03:39.204Z,1012.72
2018-11-14T01:04:39.226Z,1012.71
2018-11-14T01:05:39.242Z,1012.74
2018-11-14T01:06:39.266Z,1012.76
2018-11-14T01:07:39.287Z,1012.68
2018-11-14T01:08:39.308Z,1012.72
2018-11-14T01:09:39.329Z,1012.7
2018-11-14T01:10:39.352Z,1012.73
2018-11-14T01:11:39.373Z,1012.71
2018-11-14T01:12:39.394Z,1012.75
2018-11-14T01:13:39.416Z,1012.77
2018-11-14T01:14:39.441Z,1012.79
2018-11-14T01:15:39.465Z,1012.79
2018-11-14T01:16:39.483Z,1012.75
2018-11-14T01:17:39.506Z,1012.74
2018-11-14T01:18:39.526Z,1012.73
2018-11-14T01:19:39.546Z,1012.74
2018-11-14T01:20:39.570Z,1012.7
2018-11-14T01:21:39.629Z,1012.69
2018-11-14T01:22:39.609Z,1012.74
2018-11-14T01:23:39.632Z,1012.74
2018-11-14T01:24:39.658Z,1012.74
2018-11-14T01:25:39.674Z,1012.8
2018-11-14T01:26:39.698Z,1012.8
2018-11-14T01:27:39.718Z,1012.89
2018-11-14T01:28:39.741Z,1012.88
2018-11-14T01:29:39.765Z,1012.85
2018-11-14T01:30:39.786Z,1012.86
2018-11-14T01:31:39.808Z,1012.87
2018-11-14T01:32:39.826Z,1012.87
2018-11-14T01:33:39.847Z,1012.9
2018-11-14T01:34:39.873Z,1012.87
2018-11-14T01:35:39.915Z,1012.85
2018-11-14T01:36:39.912Z,1012.82
2018-11-14T01:37:39.934Z,1012.8
2018-11-14T01:38:39.958Z,1012.8
2018-11-14T01:39:39.977Z,1012.81
2018-11-14T01:40:39.998Z,1012.76
2018-11-14T01:41:40.025Z,1012.8
2018-11-14T01:42:40.046Z,1012.79
2018-11-14T01:43:40.062Z,1012.77
2018-11-14T01:44:40.086Z,1012.73
2018-11-14T01:45:40.107Z,1012.76
2018-11-14T01:46:40.129Z,1012.74
2018-11-14T01:47:40.154Z,1012.71
2018-11-14T01:48:40.170Z,1012.77
2018-11-14T01:49:40.192Z,1012.7
2018-11-14T01:50:40.218Z,1012.74
2018-11-14T01:51:40.235Z,1012.76
2018-11-14T01:52:40.260Z,1012.74
2018-11-14T01:53:40.278Z,1012.71
2018-11-14T01:54:40.299Z,1012.72
2018-11-14T01:55:40.322Z,1012.71
2018-11-14T01:56:40.349Z,1012.74
2018-11-14T01:57:40.365Z,1012.74
2018-11-14T01:58:40.388Z,1012.76
2018-11-14T01:59:40.408Z,1012.74
2018-11-14T02:00:40.440Z,1012.78
2018-11-14T02:01:40.450Z,1012.75
2018-11-14T02:02:40.474Z,1012.77
2018-11-14T02:03:40.492Z,1012.74
2018-11-14T02:04:40.515Z,1012.74
2018-11-14T02:05:40.537Z,1012.72
2018-11-14T02:06:40.558Z,1012.7
2018-11-14T02:07:40.578Z,1012.66
2018-11-14T02:08:40.619Z,1012.66
2018-11-14T02:09:40.621Z,1012.64
2018-11-14T02:10:40.648Z,1012.62
2018-11-14T02:11:40.665Z,1012.64
2018-11-14T02:12:40.689Z,1012.63
2018-11-14T02:13:40.717Z,1012.65
2018-11-14T02:14:40.736Z,1012.69
2018-11-14T02:15:40.750Z,1012.69
2018-11-14T02:16:40.776Z,1012.7
2018-11-14T02:17:40.795Z,1012.69
2018-11-14T02:18:40.814Z,1012.65
2018-11-14T02:19:40.840Z,1012.69
2018-11-14T02:20:40.857Z,1012.69
2018-11-14T02:21:40.879Z,1012.65
2018-11-14T02:22:40.904Z,1012.68
2018-11-14T02:23:40.922Z,1012.69
2018-11-14T02:24:40.943Z,1012.63
2018-11-14T02:25:40.967Z,1012.63
2018-11-14T02:26:40.984Z,1012.64
2018-11-14T02:27:41.007Z,1012.6
2018-11-14T02:28:41.031Z,1012.61
2018-11-14T02:29:41.052Z,1012.63
2018-11-14T02:30:41.071Z,1012.65
2018-11-14T02:31:41.101Z,1012.63
2018-11-14T02:32:41.115Z,1012.66
2018-11-14T02:33:41.136Z,1012.69
2018-11-14T02:34:41.157Z,1012.68
2018-11-14T02:35:41.180Z,1012.7
2018-11-14T02:36:41.199Z,1012.68
2018-11-14T02:37:41.225Z,1012.66
2018-11-14T02:38:41.243Z,1012.67
2018-11-14T02:39:41.265Z,1012.66
2018-11-14T02:40:41.348Z,1012.67
2018-11-14T02:41:41.307Z,1012.65
2018-11-14T02:42:41.330Z,1012.65
2018-11-14T02:43:41.348Z,1012.65
2018-11-14T02:44:41.372Z,1012.63
2018-11-14T02:45:41.396Z,1012.62
2018-11-14T02:46:41.414Z,1012.6
2018-11-14T02:47:41.440Z,1012.56
2018-11-14T02:48:41.456Z,1012.59
2018-11-14T02:49:41.481Z,1012.58
2018-11-14T02:50:41.498Z,1012.56
2018-11-14T02:51:41.520Z,1012.57
2018-11-14T02:52:41.545Z,1012.59
2018-11-14T02:53:41.566Z,1012.6
2018-11-14T02:54:41.585Z,1012.58
2018-11-14T02:55:41.605Z,1012.56
2018-11-14T02:56:41.630Z,1012.59
2018-11-14T02:57:41.651Z,1012.61
2018-11-14T02:58:41.668Z,1012.64
2018-11-14T02:59:41.693Z,1012.61
2018-11-14T03:00:41.711Z,1012.63
2018-11-14T03:01:41.735Z,1012.65
2018-11-14T03:02:41.753Z,1012.63
2018-11-14T03:03:41.778Z,1012.6
2018-11-14T03:04:41.799Z,1012.61
2018-11-14T03:05:41.821Z,1012.63
2018-11-14T03:06:41.840Z,1012.62
2018-11-14T03:07:41.860Z,1012.58
2018-11-14T03:08:41.880Z,1012.63
2018-11-14T03:09:41.963Z,1012.57
2018-11-14T03:10:41.924Z,1012.59
2018-11-14T03:11:41.949Z,1012.57
2018-11-14T03:12:41.971Z,1012.59
2018-11-14T03:13:41.988Z,1012.57
2018-11-14T03:14:42.009Z,1012.62
2018-11-14T03:15:42.029Z,1012.58
2018-11-14T03:16:42.054Z,1012.55
2018-11-14T03:17:42.076Z,1012.58
2018-11-14T03:18:42.093Z,1012.56
2018-11-14T03:19:42.115Z,1012.54
2018-11-14T03:20:42.137Z,1012.51
2018-11-14T03:21:42.160Z,1012.46
2018-11-14T03:22:42.180Z,1012.43
2018-11-14T03:23:42.201Z,1012.38
2018-11-14T03:24:42.221Z,1012.39
2018-11-14T03:25:42.248Z,1012.4
2018-11-14T03:26:42.267Z,1012.41
2018-11-14T03:27:42.288Z,1012.43
2018-11-14T03:28:42.307Z,1012.45
2018-11-14T03:29:42.326Z,1012.48
2018-11-14T03:30:42.351Z,1012.49
2018-11-14T03:31:42.370Z,1012.54
2018-11-14T03:32:42.392Z,1012.51
2018-11-14T03:33:42.413Z,1012.55
2018-11-14T03:34:42.440Z,1012.48
2018-11-14T03:35:42.523Z,1012.48
2018-11-14T03:36:42.484Z,1012.45
2018-11-14T03:37:42.497Z,1012.5
2018-11-14T03:38:42.523Z,1012.44
2018-11-14T03:39:42.541Z,1012.47
2018-11-14T03:40:42.562Z,1012.44
2018-11-14T03:41:42.585Z,1012.47
2018-11-14T03:42:42.604Z,1012.45
2018-11-14T03:43:42.629Z,1012.44
2018-11-14T03:44:42.647Z,1012.44
2018-11-14T03:45:42.668Z,1012.42
2018-11-14T03:46:42.689Z,1012.39
2018-11-14T03:47:42.717Z,1012.39
2018-11-14T03:48:42.732Z,1012.39
2018-11-14T03:49:42.752Z,1012.37
2018-11-14T03:50:42.775Z,1012.39
2018-11-14T03:51:42.799Z,1012.38
2018-11-14T03:52:42.818Z,1012.36
2018-11-14T03:53:42.844Z,1012.35
2018-11-14T03:54:42.863Z,1012.33
2018-11-14T03:55:42.882Z,1012.29
2018-11-14T03:56:42.901Z,1012.27
2018-11-14T03:57:42.923Z,1012.27
2018-11-14T03:58:42.944Z,1012.26
2018-11-14T03:59:42.966Z,1012.29
2018-11-14T04:00:42.993Z,1012.26
2018-11-14T04:01:43.008Z,1012.26
2018-11-14T04:02:43.030Z,1012.28
2018-11-14T04:03:43.051Z,1012.3
2018-11-14T04:04:43.070Z,1012.24
2018-11-14T04:05:43.103Z,1012.25
2018-11-14T04:06:43.120Z,1012.26
2018-11-14T04:07:43.140Z,1012.26
2018-11-14T04:08:43.162Z,1012.28
2018-11-14T04:09:43.179Z,1012.2
2018-11-14T04:10:43.201Z,1012.2
2018-11-14T04:11:43.231Z,1012.19
2018-11-14T04:12:43.245Z,1012.17
2018-11-14T04:13:43.266Z,1012.19
2018-11-14T04:14:43.285Z,1012.22
2018-11-14T04:15:43.307Z,1012.25
2018-11-14T04:16:43.328Z,1012.24
2018-11-14T04:17:43.359Z,1012.23
2018-11-14T04:18:43.374Z,1012.28
2018-11-14T04:19:43.391Z,1012.27
2018-11-14T04:20:43.416Z,1012.26
2018-11-14T04:21:43.436Z,1012.24
2018-11-14T04:22:43.463Z,1012.26
2018-11-14T04:23:43.489Z,1012.22
2018-11-14T04:24:43.498Z,1012.21
2018-11-14T04:25:43.518Z,1012.18
2018-11-14T04:26:43.538Z,1012.24
2018-11-14T04:27:43.560Z,1012.23
2018-11-14T04:28:43.590Z,1012.28
2018-11-14T04:29:43.605Z,1012.28
2018-11-14T04:30:43.626Z,1012.29
2018-11-14T04:31:43.647Z,1012.27
2018-11-14T04:32:43.665Z,1012.26
2018-11-14T04:33:43.685Z,1012.28
2018-11-14T04:34:43.720Z,1012.3
2018-11-14T04:35:43.732Z,1012.32
2018-11-14T04:36:43.751Z,1012.31
2018-11-14T04:37:43.773Z,1012.35
2018-11-14T04:38:43.791Z,1012.35
2018-11-14T04:39:43.812Z,1012.31
2018-11-14T04:40:43.836Z,1012.34
2018-11-14T04:41:43.853Z,1012.37
2018-11-14T04:42:43.879Z,1012.41
2018-11-14T04:43:43.896Z,1012.35
2018-11-14T04:44:43.917Z,1012.34
2018-11-14T04:45:43.938Z,1012.36
2018-11-14T04:46:43.964Z,1012.32
2018-11-14T04:47:43.982Z,1012.28
2018-11-14T04:48:44.001Z,1012.26
2018-11-14T04:49:44.026Z,1012.26
2018-11-14T04:50:44.044Z,1012.2
2018-11-14T04:51:44.063Z,1012.19
2018-11-14T04:52:44.093Z,1012.21
2018-11-14T04:53:44.109Z,1012.18
2018-11-14T04:54:44.130Z,1012.11
2018-11-14T04:55:44.147Z,1012.13
2018-11-14T04:56:44.169Z,1012.14
2018-11-14T04:57:44.189Z,1012.09
2018-11-14T04:58:44.215Z,1012.13
2018-11-14T04:59:44.232Z,1012.13
2018-11-14T05:00:44.255Z,1012.12
2018-11-14T05:01:44.277Z,1012.11
2018-11-14T05:02:44.294Z,1012.1
2018-11-14T05:03:44.315Z,1012.06
2018-11-14T05:04:44.337Z,1012.05
2018-11-14T05:05:44.358Z,1012.04
2018-11-14T05:06:44.383Z,1012.03
2018-11-14T05:07:44.400Z,1012.03
2018-11-14T05:08:44.420Z,1012.01
2018-11-14T05:09:44.446Z,1012.03
2018-11-14T05:10:44.463Z,1012.03
2018-11-14T05:11:44.482Z,1012.01
2018-11-14T05:12:44.525Z,1012.09
2018-11-14T05:13:44.528Z,1012.06
2018-11-14T05:14:44.546Z,1012.07
2018-11-14T05:15:44.567Z,1012.03
2018-11-14T05:16:44.593Z,1012.06
2018-11-14T05:17:44.612Z,1012.08
2018-11-14T05:18:44.628Z,1012.08
2018-11-14T05:19:44.653Z,1012.11
2018-11-14T05:20:44.671Z,1012.12
2018-11-14T05:21:44.694Z,1012.12
2018-11-14T05:22:44.736Z,1012.13
2018-11-14T05:23:44.734Z,1012.14
2018-11-14T05:24:44.798Z,1012.17
2018-11-14T05:25:44.776Z,1012.16
2018-11-14T05:26:44.797Z,1012.15
2018-11-14T05:27:44.819Z,1012.15
2018-11-14T05:28:44.837Z,1012.11
2018-11-14T05:29:44.860Z,1012.13
2018-11-14T05:30:44.885Z,1012.11
2018-11-14T05:31:44.954Z,1012.09
2018-11-14T05:32:44.932Z,1012.1
2018-11-14T05:33:44.944Z,1012.07
2018-11-14T05:34:44.964Z,1012.09
2018-11-14T05:35:44.984Z,1012.1
2018-11-14T05:36:45.009Z,1012.13
2018-11-14T05:37:45.028Z,1012.1
2018-11-14T05:38:45.052Z,1012.08
2018-11-14T05:39:45.213Z,1012.1
2018-11-14T05:40:45.094Z,1012.07
2018-11-14T05:41:45.109Z,1012.09
2018-11-14T05:42:45.134Z,1012.09
2018-11-14T05:43:45.158Z,1012.08
2018-11-14T05:44:45.174Z,1012.08
2018-11-14T05:45:45.199Z,1012.09
2018-11-14T05:46:45.214Z,1012.08
2018-11-14T05:47:45.235Z,1012.11
2018-11-14T05:48:45.263Z,1012.12
2018-11-14T05:49:45.287Z,1012.11
2018-11-14T05:50:45.304Z,1012.09
2018-11-14T05:51:45.325Z,1012.08
2018-11-14T05:52:45.344Z,1012.1
2018-11-14T05:53:45.361Z,1012.07
2018-11-14T05:54:45.389Z,1012.09
2018-11-14T05:55:45.404Z,1012.09
2018-11-14T05:56:45.426Z,1012.04
2018-11-14T05:57:45.449Z,1012.03
2018-11-14T05:58:45.465Z,1012.04
2018-11-14T05:59:45.487Z,1012.03
2018-11-14T06:00:45.509Z,1012.05
2018-11-14T06:01:45.529Z,1012.03
2018-11-14T06:02:45.550Z,1012.04
2018-11-14T06:03:45.573Z,1012.01
2018-11-14T06:04:45.591Z,1012
2018-11-14T06:05:45.613Z,1012.02
2018-11-14T06:06:45.634Z,1011.95
2018-11-14T06:07:45.654Z,1011.98
2018-11-14T06:08:45.678Z,1012.02
2018-11-14T06:09:45.699Z,1012.01
2018-11-14T06:10:45.727Z,1012
2018-11-14T06:11:45.738Z,1012.02
2018-11-14T06:12:45.759Z,1012.05
2018-11-14T06:13:45.781Z,1012.06
2018-11-14T06:14:45.800Z,1012.05
2018-11-14T06:15:45.821Z,1012.08
2018-11-14T06:16:45.842Z,1012.09
2018-11-14T06:17:45.863Z,1012.11
2018-11-14T06:18:45.884Z,1012.1
2018-11-14T06:19:45.908Z,1012.13
2018-11-14T06:20:45.925Z,1012.11
2018-11-14T06:21:45.965Z,1012.09
2018-11-14T06:22:45.968Z,1012.13
2018-11-14T06:23:46.095Z,1012.1
2018-11-14T06:24:46.008Z,1012.1
2018-11-14T06:25:46.031Z,1012.07
2018-11-14T06:26:46.049Z,1012.13
2018-11-14T06:27:46.071Z,1012.13
2018-11-14T06:28:46.099Z,1012.11
2018-11-14T06:29:46.176Z,1012.13
2018-11-14T06:30:46.142Z,1012.13
2018-11-14T06:31:46.155Z,1012.13
2018-11-14T06:32:46.176Z,1012.11
2018-11-14T06:33:46.197Z,1012.19
2018-11-14T06:34:46.220Z,1012.18
2018-11-14T06:35:46.238Z,1012.2
2018-11-14T06:36:46.258Z,1012.2
2018-11-14T06:37:46.288Z,1012.21
2018-11-14T06:38:46.300Z,1012.23
2018-11-14T06:39:46.325Z,1012.22
2018-11-14T06:40:46.348Z,1012.19
2018-11-14T06:41:46.446Z,1012.19
2018-11-14T06:42:46.382Z,1012.21
2018-11-14T06:43:46.405Z,1012.18
2018-11-14T06:44:46.427Z,1012.24
2018-11-14T06:45:46.448Z,1012.23
2018-11-14T06:46:46.475Z,1012.26
2018-11-14T06:47:46.487Z,1012.26
2018-11-14T06:48:46.507Z,1012.23
2018-11-14T06:49:46.538Z,1012.27
2018-11-14T06:50:46.549Z,1012.29
2018-11-14T06:51:46.571Z,1012.27
2018-11-14T06:52:46.595Z,1012.3
2018-11-14T06:53:46.615Z,1012.27
2018-11-14T06:54:46.634Z,1012.29
2018-11-14T06:55:46.658Z,1012.28
2018-11-14T06:56:46.677Z,1012.28
2018-11-14T06:57:46.698Z,1012.35
2018-11-14T06:58:46.852Z,1012.34
2018-11-14T06:59:46.828Z,1012.33
2018-11-14T07:00:46.757Z,1012.46
2018-11-14T07:01:46.785Z,1012.44
2018-11-14T07:02:46.804Z,1012.45
2018-11-14T07:03:46.822Z,1012.46
2018-11-14T07:04:46.860Z,1012.41
2018-11-14T07:05:46.974Z,1012.43
2018-11-14T07:06:46.883Z,1012.41
2018-11-14T07:07:46.905Z,1012.45
2018-11-14T07:08:46.928Z,1012.49
2018-11-14T07:09:46.949Z,1012.44
2018-11-14T07:10:46.987Z,1012.43
2018-11-14T07:11:46.990Z,1012.44
2018-11-14T07:12:47.006Z,1012.46
2018-11-14T07:13:47.030Z,1012.48
2018-11-14T07:14:47.052Z,1012.46
2018-11-14T07:15:47.073Z,1012.53
2018-11-14T07:16:47.089Z,1012.51
2018-11-14T07:17:47.126Z,1012.53
2018-11-14T07:18:47.131Z,1012.54
2018-11-14T07:19:47.152Z,1012.55
2018-11-14T07:20:47.173Z,1012.53
2018-11-14T07:21:47.191Z,1012.53
2018-11-14T07:22:47.214Z,1012.52
2018-11-14T07:23:47.313Z,1012.49
2018-11-14T07:24:47.311Z,1012.54
2018-11-14T07:25:47.276Z,1012.52
2018-11-14T07:26:47.301Z,1012.53
2018-11-14T07:27:47.318Z,1012.51
2018-11-14T07:28:47.340Z,1012.53
2018-11-14T07:29:47.359Z,1012.54
2018-11-14T07:30:47.379Z,1012.56
2018-11-14T07:31:47.399Z,1012.54
2018-11-14T07:32:47.420Z,1012.56
2018-11-14T07:33:47.455Z,1012.54
2018-11-14T07:34:47.462Z,1012.58
2018-11-14T07:35:47.488Z,1012.57
2018-11-14T07:36:47.501Z,1012.54
2018-11-14T07:37:47.532Z,1012.55
2018-11-14T07:38:47.543Z,1012.52
2018-11-14T07:39:47.570Z,1012.58
2018-11-14T07:40:47.584Z,1012.54
2018-11-14T07:41:47.609Z,1012.54
2018-11-14T07:42:47.633Z,1012.55
2018-11-14T07:43:47.756Z,1012.58
2018-11-14T07:44:47.667Z,1012.6
2018-11-14T07:45:47.687Z,1012.6
2018-11-14T07:46:47.719Z,1012.56
2018-11-14T07:47:47.730Z,1012.55
2018-11-14T07:48:47.762Z,1012.54
2018-11-14T07:49:47.771Z,1012.54
2018-11-14T07:50:47.795Z,1012.57
2018-11-14T07:51:47.815Z,1012.56
2018-11-14T07:52:47.837Z,1012.61
2018-11-14T07:53:47.854Z,1012.59
2018-11-14T07:54:47.976Z,1012.61
2018-11-14T07:55:47.897Z,1012.63
2018-11-14T07:56:47.920Z,1012.65
2018-11-14T07:57:47.936Z,1012.72
2018-11-14T07:58:47.957Z,1012.72
2018-11-14T07:59:47.978Z,1012.78
2018-11-14T08:00:47.998Z,1012.76
2018-11-14T08:01:48.018Z,1012.79
2018-11-14T08:02:48.043Z,1012.8
2018-11-14T08:03:48.060Z,1012.78
2018-11-14T08:04:48.082Z,1012.78
2018-11-14T08:05:48.101Z,1012.78
2018-11-14T08:06:48.122Z,1012.78
2018-11-14T08:07:48.221Z,1012.74
2018-11-14T08:08:48.164Z,1012.81
2018-11-14T08:09:48.184Z,1012.81
2018-11-14T08:10:48.209Z,1012.8
2018-11-14T08:11:48.227Z,1012.8
2018-11-14T08:12:48.248Z,1012.76
2018-11-14T08:13:48.268Z,1012.78
2018-11-14T08:14:48.289Z,1012.79
2018-11-14T08:15:48.310Z,1012.81
2018-11-14T08:16:48.330Z,1012.76
2018-11-14T08:17:48.357Z,1012.82
2018-11-14T08:18:48.444Z,1012.79
2018-11-14T08:19:48.392Z,1012.82
2018-11-14T08:20:48.413Z,1012.78
2018-11-14T08:21:48.433Z,1012.76
2018-11-14T08:22:48.456Z,1012.77
2018-11-14T08:23:48.476Z,1012.76
2018-11-14T08:24:48.549Z,1012.79
2018-11-14T08:25:48.522Z,1012.77
2018-11-14T08:26:48.539Z,1012.81
2018-11-14T08:27:48.562Z,1012.84
2018-11-14T08:28:48.586Z,1012.82
2018-11-14T08:29:48.600Z,1012.88
2018-11-14T08:30:48.625Z,1012.87
2018-11-14T08:31:48.649Z,1012.83
2018-11-14T08:32:48.663Z,1012.9
2018-11-14T08:33:48.689Z,1012.88
2018-11-14T08:34:48.703Z,1012.92
2018-11-14T08:35:48.731Z,1012.9
2018-11-14T08:36:48.747Z,1012.92
2018-11-14T08:37:48.767Z,1012.93
2018-11-14T08:38:48.789Z,1012.95
2018-11-14T08:39:48.809Z,1012.88
2018-11-14T08:40:48.831Z,1012.91
2018-11-14T08:41:48.857Z,1012.9
2018-11-14T08:42:48.874Z,1012.86
2018-11-14T08:43:48.897Z,1012.87
2018-11-14T08:44:48.914Z,1012.87
2018-11-14T08:45:48.935Z,1012.88
2018-11-14T08:46:48.960Z,1012.87
2018-11-14T08:47:48.981Z,1012.84
2018-11-14T08:48:48.997Z,1012.82
2018-11-14T08:49:49.018Z,1012.8
2018-11-14T08:50:49.040Z,1012.77
2018-11-14T08:51:49.073Z,1012.81
2018-11-14T08:52:49.081Z,1012.81
2018-11-14T08:53:49.102Z,1012.79
2018-11-14T08:54:49.129Z,1012.81
2018-11-14T08:55:49.149Z,1012.77
2018-11-14T08:56:49.169Z,1012.77
2018-11-14T08:57:49.217Z,1012.8
2018-11-14T08:58:49.208Z,1012.77
2018-11-14T08:59:49.227Z,1012.77
2018-11-14T09:00:49.248Z,1012.75
2018-11-14T09:01:49.270Z,1012.77
2018-11-14T09:02:49.295Z,1012.76
2018-11-14T09:03:49.325Z,1012.79
2018-11-14T09:04:49.333Z,1012.78
2018-11-14T09:05:49.355Z,1012.79
2018-11-14T09:06:49.376Z,1012.74
2018-11-14T09:07:49.434Z,1012.78
2018-11-14T09:08:49.417Z,1012.79
2018-11-14T09:09:49.440Z,1012.79
2018-11-14T09:10:49.486Z,1012.84
2018-11-14T09:11:49.480Z,1012.83
2018-11-14T09:12:49.538Z,1012.87
2018-11-14T09:13:49.522Z,1012.86
2018-11-14T09:14:49.555Z,1012.9
2018-11-14T09:15:49.571Z,1012.94
2018-11-14T09:16:49.590Z,1012.91
2018-11-14T09:17:49.627Z,1012.89
2018-11-14T09:18:49.734Z,1012.95
2018-11-14T09:19:49.647Z,1012.93
2018-11-14T09:20:49.672Z,1012.9
2018-11-14T09:21:49.692Z,1012.89
2018-11-14T09:22:49.710Z,1012.88
2018-11-14T09:23:49.776Z,1012.93
2018-11-14T09:24:49.787Z,1012.95
2018-11-14T09:25:49.774Z,1013
2018-11-14T09:26:49.802Z,1012.98
2018-11-14T09:27:49.822Z,1012.97
2018-11-14T09:28:49.836Z,1013
2018-11-14T09:29:49.863Z,1013.02
2018-11-14T09:30:49.880Z,1012.99
2018-11-14T09:31:49.904Z,1013.02
2018-11-14T09:32:50.005Z,1012.99
2018-11-14T09:33:49.944Z,1012.94
2018-11-14T09:34:49.963Z,1012.94
2018-11-14T09:35:49.985Z,1012.97
2018-11-14T09:36:50.005Z,1012.94
2018-11-14T09:37:50.033Z,1012.92
2018-11-14T09:38:50.047Z,1012.93
2018-11-14T09:39:50.076Z,1012.92
2018-11-14T09:40:50.156Z,1012.91
2018-11-14T09:41:50.113Z,1012.93
2018-11-14T09:42:50.138Z,1012.93
2018-11-14T09:43:50.216Z,1012.99
2018-11-14T09:44:50.173Z,1013
2018-11-14T09:45:50.212Z,1012.95
2018-11-14T09:46:50.220Z,1012.98
2018-11-14T09:47:50.236Z,1012.98
2018-11-14T09:48:50.257Z,1013.01
2018-11-14T09:49:50.280Z,1013
2018-11-14T09:50:50.300Z,1013.01
2018-11-14T09:51:50.320Z,1013
2018-11-14T09:52:50.346Z,1013.01
2018-11-14T09:53:50.363Z,1013.01
2018-11-14T09:54:50.389Z,1013.02
2018-11-14T09:55:50.405Z,1013
2018-11-14T09:56:50.584Z,1013.03
2018-11-14T09:57:50.448Z,1013
2018-11-14T09:58:50.496Z,1013.07
2018-11-14T09:59:50.490Z,1013.07
2018-11-14T10:00:50.519Z,1013.06
2018-11-14T10:01:50.531Z,1013.05
2018-11-14T10:02:50.634Z,1013.06
2018-11-14T10:03:50.578Z,1013.05
2018-11-14T10:04:50.599Z,1013
2018-11-14T10:05:50.644Z,1013.03
2018-11-14T10:06:50.638Z,1013.02
2018-11-14T10:07:50.683Z,1013
2018-11-14T10:08:50.763Z,1012.96
2018-11-14T10:09:50.700Z,1012.93
2018-11-14T10:10:50.765Z,1012.94
2018-11-14T10:11:50.744Z,1012.95
2018-11-14T10:12:50.764Z,1012.86
2018-11-14T10:13:50.784Z,1012.87
2018-11-14T10:14:50.806Z,1012.82
2018-11-14T10:15:51.029Z,1012.77
2018-11-14T10:16:50.852Z,1012.8
2018-11-14T10:17:50.867Z,1012.76
2018-11-14T10:18:50.895Z,1012.79
2018-11-14T10:19:50.911Z,1012.81
2018-11-14T10:20:50.935Z,1012.82
2018-11-14T10:21:50.951Z,1012.8
2018-11-14T10:22:50.977Z,1012.8
2018-11-14T10:23:50.995Z,1012.78
2018-11-14T10:24:51.037Z,1012.8
2018-11-14T10:25:51.036Z,1012.83
2018-11-14T10:26:51.058Z,1012.85
2018-11-14T10:27:51.083Z,1012.84
2018-11-14T10:28:51.100Z,1012.88
2018-11-14T10:29:51.127Z,1012.87
2018-11-14T10:30:51.201Z,1012.87
2018-11-14T10:31:51.166Z,1012.85
2018-11-14T10:32:51.186Z,1012.78
2018-11-14T10:33:51.221Z,1012.77
2018-11-14T10:34:51.233Z,1012.79
2018-11-14T10:35:51.261Z,1012.76
2018-11-14T10:36:51.273Z,1012.78
2018-11-14T10:37:51.295Z,1012.77
2018-11-14T10:38:51.312Z,1012.79
2018-11-14T10:39:51.335Z,1012.76
2018-11-14T10:40:51.354Z,1012.79
2018-11-14T10:41:51.376Z,1012.83
2018-11-14T10:42:51.454Z,1012.77
2018-11-14T10:43:51.421Z,1012.8
2018-11-14T10:44:51.438Z,1012.79
2018-11-14T10:45:51.460Z,1012.81
2018-11-14T10:46:51.485Z,1012.78
2018-11-14T10:47:51.505Z,1012.77
2018-11-14T10:48:51.525Z,1012.81
2018-11-14T10:49:51.547Z,1012.85
2018-11-14T10:50:51.599Z,1012.81
2018-11-14T10:51:51.587Z,1012.88
2018-11-14T10:52:51.608Z,1012.9
2018-11-14T10:53:51.628Z,1012.88
2018-11-14T10:54:51.656Z,1012.92
2018-11-14T10:55:51.674Z,1012.91
2018-11-14T10:56:51.693Z,1012.88
2018-11-14T10:57:51.716Z,1012.87
2018-11-14T10:58:51.738Z,1012.87
2018-11-14T10:59:51.763Z,1012.81
2018-11-14T11:00:51.777Z,1012.81
2018-11-14T11:01:51.798Z,1012.8
2018-11-14T11:02:51.819Z,1012.78
2018-11-14T11:03:51.840Z,1012.75
2018-11-14T11:04:51.860Z,1012.76
2018-11-14T11:05:51.883Z,1012.77
2018-11-14T11:06:51.907Z,1012.75
2018-11-14T11:07:51.979Z,1012.76
2018-11-14T11:08:51.948Z,1012.73
2018-11-14T11:09:51.968Z,1012.68
2018-11-14T11:10:51.988Z,1012.66
2018-11-14T11:11:52.016Z,1012.68
2018-11-14T11:12:52.031Z,1012.67
2018-11-14T11:13:52.163Z,1012.68
2018-11-14T11:14:52.079Z,1012.72
2018-11-14T11:15:52.094Z,1012.66
2018-11-14T11:16:52.116Z,1012.66
2018-11-14T11:17:52.145Z,1012.71
2018-11-14T11:18:52.159Z,1012.66
2018-11-14T11:19:52.180Z,1012.66
2018-11-14T11:20:52.204Z,1012.71
2018-11-14T11:21:52.225Z,1012.68
2018-11-14T11:22:52.246Z,1012.69
2018-11-14T11:23:52.269Z,1012.69
2018-11-14T11:24:52.286Z,1012.69
2018-11-14T11:25:52.307Z,1012.64
2018-11-14T11:26:52.327Z,1012.65
2018-11-14T11:27:52.348Z,1012.63
2018-11-14T11:28:52.371Z,1012.57
2018-11-14T11:29:52.392Z,1012.56
2018-11-14T11:30:52.472Z,1012.54
2018-11-14T11:31:52.459Z,1012.51
2018-11-14T11:32:52.456Z,1012.53
2018-11-14T11:33:52.477Z,1012.48
2018-11-14T11:34:52.497Z,1012.52
2018-11-14T11:35:52.519Z,1012.48
2018-11-14T11:36:52.545Z,1012.47
2018-11-14T11:37:52.565Z,1012.48
2018-11-14T11:38:52.583Z,1012.47
2018-11-14T11:39:52.603Z,1012.49
2018-11-14T11:40:52.624Z,1012.46
2018-11-14T11:41:52.647Z,1012.46
2018-11-14T11:42:52.671Z,1012.44
2018-11-14T11:43:52.688Z,1012.42
2018-11-14T11:44:52.738Z,1012.39
2018-11-14T11:45:52.732Z,1012.36
2018-11-14T11:46:52.754Z,1012.35
2018-11-14T11:47:52.774Z,1012.35
2018-11-14T11:48:52.794Z,1012.31
2018-11-14T11:49:52.816Z,1012.34
2018-11-14T11:50:52.841Z,1012.29
2018-11-14T11:51:52.862Z,1012.3
2018-11-14T11:52:52.884Z,1012.29
2018-11-14T11:53:52.905Z,1012.32
2018-11-14T11:54:52.924Z,1012.31
2018-11-14T11:55:52.947Z,1012.32
2018-11-14T11:56:52.966Z,1012.31
2018-11-14T11:57:52.993Z,1012.35
2018-11-14T11:58:53.012Z,1012.32
2018-11-14T11:59:53.042Z,1012.31
2018-11-14T12:00:53.223Z,1012.33
2018-11-14T12:01:53.074Z,1012.29
2018-11-14T12:02:53.100Z,1012.27
2018-11-14T12:03:53.116Z,1012.27
2018-11-14T12:04:53.136Z,1012.27
2018-11-14T12:05:53.233Z,1012.28
2018-11-14T12:06:53.180Z,1012.25
2018-11-14T12:07:53.201Z,1012.18
2018-11-14T12:08:53.223Z,1012.15